Time;durP1;ratioP1;P1;durP2;ratioP2;P2;SDS_P1;SDS_P2;PMS_P1;PMS_P2;Temp;Humidity;BMP_temperature;BMP_pressure;BME280_temperature;BME280_humidity;BME280_pressure;Samples;Min_cycle;Max_cycle;Signal;HPM_P1;HPM_P2
2021/12/09 00:00:43;;;;;;;1999.90;999.90;;;2.30;99.90;;;;;;5016898;28;20476;-71
2021/12/09 00:03:10;;;;;;;1999.90;999.90;;;2.30;99.90;;;;;;5017397;28;20447;-71
2021/12/09 00:05:37;;;;;;;1999.90;999.90;;;2.20;99.90;;;;;;5018890;28;20451;-71
2021/12/09 00:08:05;;;;;;;1999.90;999.90;;;2.30;99.90;;;;;;5017333;28;20452;-73
2021/12/09 00:10:33;;;;;;;1999.90;999.90;;;2.20;99.90;;;;;;5017730;28;20518;-72
2021/12/09 00:13:00;;;;;;;1999.90;999.90;;;2.20;99.90;;;;;;5015479;28;20457;-71
2021/12/09 00:15:28;;;;;;;1999.90;999.90;;;2.20;99.90;;;;;;5016099;28;20444;-72
2021/12/09 00:17:54;;;;;;;1999.90;999.90;;;2.10;99.90;;;;;;5017129;28;21006;-71
2021/12/09 00:20:21;;;;;;;1999.90;999.90;;;2.10;99.90;;;;;;5017444;28;21070;-71
2021/12/09 00:22:48;;;;;;;1999.90;999.90;;;2.10;99.90;;;;;;5031927;28;20509;-71
2021/12/09 00:25:15;;;;;;;1999.90;999.90;;;2.10;99.90;;;;;;5036830;28;20448;-72
2021/12/09 00:27:42;;;;;;;1999.90;999.90;;;2.10;99.90;;;;;;5035374;28;20443;-71
2021/12/09 00:30:11;;;;;;;1999.90;999.90;;;2.20;99.90;;;;;;5033640;28;20900;-70
2021/12/09 00:32:41;;;;;;;1999.90;999.90;;;2.20;99.90;;;;;;5036401;28;20544;-71
2021/12/09 00:35:09;;;;;;;1999.90;999.90;;;2.10;99.90;;;;;;5034003;28;20446;-71
2021/12/09 00:37:39;;;;;;;1999.90;999.90;;;2.10;99.90;;;;;;5018901;28;20539;-71
2021/12/09 00:40:09;;;;;;;1999.90;999.90;;;2.10;99.90;;;;;;5014075;28;20853;-71
2021/12/09 00:42:36;;;;;;;1999.90;999.90;;;2.20;99.90;;;;;;5014225;28;21015;-71
2021/12/09 00:45:05;;;;;;;1999.90;999.90;;;2.10;99.90;;;;;;5014080;28;20452;-72
2021/12/09 00:47:31;;;;;;;1999.90;999.90;;;2.10;99.90;;;;;;5014202;28;20570;-71
2021/12/09 00:49:59;;;;;;;1999.90;999.90;;;2.20;99.90;;;;;;5014400;28;20459;-70
2021/12/09 00:52:27;;;;;;;1999.90;999.90;;;2.10;99.90;;;;;;5031196;28;20986;-71
2021/12/09 00:54:56;;;;;;;1999.90;999.90;;;2.10;99.90;;;;;;5036900;28;20874;-71
2021/12/09 00:57:23;;;;;;;1999.90;999.90;;;2.10;99.90;;;;;;5036268;28;20439;-71
2021/12/09 00:59:50;;;;;;;1999.90;999.90;;;2.00;99.90;;;;;;5036902;28;20982;-70
2021/12/09 01:02:17;;;;;;;1999.90;999.90;;;2.00;99.90;;;;;;5034801;28;20447;-72
2021/12/09 01:04:46;;;;;;;1999.90;999.90;;;2.00;99.90;;;;;;5036496;28;20451;-72
2021/12/09 01:07:15;;;;;;;1999.90;999.90;;;2.00;99.90;;;;;;5018253;28;20479;-71
2021/12/09 01:09:42;;;;;;;1999.90;999.90;;;1.90;99.90;;;;;;5015698;28;20464;-71
2021/12/09 01:12:10;;;;;;;1999.90;999.90;;;1.90;99.90;;;;;;5013726;28;20491;-72
2021/12/09 01:14:37;;;;;;;1999.90;999.90;;;2.10;99.90;;;;;;5014009;28;20440;-71
2021/12/09 01:17:05;;;;;;;1999.90;999.90;;;2.00;99.90;;;;;;5013875;28;20789;-72
2021/12/09 01:19:42;;;;;;;1999.90;999.90;;;2.10;99.90;;;;;;5015231;28;20655;-69
2021/12/09 01:22:09;;;;;;;1999.90;999.90;;;2.00;99.90;;;;;;5020314;28;20486;-68
2021/12/09 01:24:37;;;;;;;1999.90;999.90;;;2.00;99.90;;;;;;5012085;28;20498;-69
2021/12/09 01:27:05;;;;;;;1999.90;999.90;;;1.90;99.90;;;;;;5012160;28;20448;-69
2021/12/09 01:29:36;;;;;;;1999.90;999.90;;;1.90;99.90;;;;;;5012222;28;20480;-68
2021/12/09 01:32:06;;;;;;;1999.90;999.90;;;1.90;99.90;;;;;;5011982;28;20464;-69
2021/12/09 01:34:33;;;;;;;1999.90;999.90;;;1.80;99.90;;;;;;5011799;28;20459;-67
2021/12/09 01:37:01;;;;;;;1999.90;999.90;;;1.90;99.90;;;;;;5031809;28;20455;-69
2021/12/09 01:39:30;;;;;;;1999.90;999.90;;;1.80;99.90;;;;;;5031768;28;20447;-70
2021/12/09 01:41:59;;;;;;;1999.90;999.90;;;1.80;99.90;;;;;;5031454;28;20454;-69
2021/12/09 01:44:27;;;;;;;1999.90;999.90;;;1.80;99.90;;;;;;5031633;28;20489;-70
2021/12/09 01:46:56;;;;;;;1999.90;999.90;;;1.80;99.90;;;;;;5031741;28;20478;-70
2021/12/09 01:49:23;;;;;;;1999.90;999.90;;;1.90;99.90;;;;;;5031434;28;20451;-69
2021/12/09 01:51:50;;;;;;;1999.90;999.90;;;1.90;99.90;;;;;;5030974;28;20487;-69
2021/12/09 01:54:17;;;;;;;1999.90;999.90;;;1.90;99.90;;;;;;5031713;28;20501;-69
2021/12/09 01:56:44;;;;;;;1999.90;999.90;;;2.00;99.90;;;;;;5031699;28;20454;-69
2021/12/09 01:59:12;;;;;;;1999.90;999.90;;;1.90;99.90;;;;;;5031414;28;20872;-69
2021/12/09 02:01:38;;;;;;;1999.90;999.90;;;1.90;99.90;;;;;;5030841;28;20984;-69
2021/12/09 02:04:08;;;;;;;1999.90;999.90;;;1.80;99.90;;;;;;5031252;28;20947;-69
2021/12/09 02:06:40;;;;;;;1999.90;999.90;;;1.80;99.90;;;;;;5011675;28;20514;-69
2021/12/09 02:09:08;;;;;;;1999.90;999.90;;;1.80;99.90;;;;;;5011988;28;20451;-69
2021/12/09 02:11:35;;;;;;;1999.90;999.90;;;1.80;99.90;;;;;;5011259;28;20496;-69
2021/12/09 02:14:02;;;;;;;1999.90;999.90;;;1.80;99.90;;;;;;5013678;28;20533;-69
2021/12/09 02:16:31;;;;;;;1999.90;999.90;;;1.90;99.90;;;;;;5015437;28;20510;-69
2021/12/09 02:18:57;;;;;;;1999.90;999.90;;;1.90;99.90;;;;;;5016746;28;20502;-69
2021/12/09 02:21:27;;;;;;;1999.90;999.90;;;1.80;99.90;;;;;;5014873;28;20546;-70
2021/12/09 02:23:56;;;;;;;1999.90;999.90;;;1.90;99.90;;;;;;5014844;28;20933;-69
2021/12/09 02:26:26;;;;;;;1999.90;999.90;;;1.90;99.90;;;;;;5015348;28;20522;-69
2021/12/09 02:28:54;;;;;;;1999.90;999.90;;;1.90;99.90;;;;;;5015138;28;20455;-69
2021/12/09 02:31:22;;;;;;;1999.90;999.90;;;1.80;99.90;;;;;;5014905;28;20526;-69
2021/12/09 02:33:48;;;;;;;1999.90;999.90;;;1.80;99.90;;;;;;5017657;28;20524;-69
2021/12/09 02:36:15;;;;;;;1999.90;999.90;;;1.80;99.90;;;;;;5034823;28;20856;-69
2021/12/09 02:38:44;;;;;;;1999.90;999.90;;;1.70;99.90;;;;;;5034326;28;20463;-69
2021/12/09 02:41:15;;;;;;;1999.90;999.90;;;1.70;99.90;;;;;;5034512;28;21065;-69
2021/12/09 02:43:43;;;;;;;1999.90;999.90;;;1.70;99.90;;;;;;5034948;28;20757;-68
2021/12/09 02:46:09;;;;;;;1999.90;999.90;;;1.70;99.90;;;;;;5034590;28;20451;-69
2021/12/09 02:48:36;;;;;;;1999.90;999.90;;;1.70;99.90;;;;;;5034753;28;20505;-69
2021/12/09 02:51:06;;;;;;;1999.90;999.90;;;1.70;99.90;;;;;;5033929;28;20824;-69
2021/12/09 02:53:33;;;;;;;1999.90;999.90;;;1.70;99.90;;;;;;5034528;28;20479;-69
2021/12/09 02:56:03;;;;;;;1999.90;999.90;;;1.70;99.90;;;;;;5034050;28;20451;-69
2021/12/09 02:58:30;;;;;;;1999.90;999.90;;;1.70;99.90;;;;;;5034341;28;20443;-70
2021/12/09 03:01:00;;;;;;;1999.90;999.90;;;1.70;99.90;;;;;;5034213;28;20524;-69
2021/12/09 03:03:28;;;;;;;1999.90;999.90;;;1.80;99.90;;;;;;5034515;28;20432;-69
2021/12/09 03:05:55;;;;;;;1999.90;999.90;;;1.80;99.90;;;;;;5034413;28;20518;-69
2021/12/09 03:08:33;;;;;;;1999.90;999.90;;;1.80;99.90;;;;;;5033726;28;20455;-69
2021/12/09 03:11:04;;;;;;;1999.90;999.90;;;1.80;99.90;;;;;;5033973;28;20885;-69
2021/12/09 03:13:31;;;;;;;1999.90;999.90;;;1.70;99.90;;;;;;5033989;28;20487;-69
2021/12/09 03:15:58;;;;;;;1999.90;999.90;;;1.70;99.90;;;;;;5034120;28;20468;-69
2021/12/09 03:18:25;;;;;;;1999.90;999.90;;;1.80;99.90;;;;;;5034059;28;20455;-69
2021/12/09 03:20:51;;;;;;;1999.90;999.90;;;1.80;99.90;;;;;;5033184;28;20483;-69
2021/12/09 03:23:18;;;;;;;1999.90;999.90;;;2.00;99.90;;;;;;5013911;28;20444;-69
2021/12/09 03:25:45;;;;;;;1999.90;999.90;;;2.00;99.90;;;;;;5013138;28;20502;-70
2021/12/09 03:28:13;;;;;;;1999.90;999.90;;;2.00;99.90;;;;;;5013653;28;20510;-69
2021/12/09 03:30:40;;;;;;;1999.90;999.90;;;2.00;99.90;;;;;;5013915;28;20887;-69
2021/12/09 03:33:07;;;;;;;1999.90;999.90;;;1.90;99.90;;;;;;5013875;28;20903;-69
2021/12/09 03:35:34;;;;;;;1999.90;999.90;;;1.90;99.90;;;;;;5013651;28;21029;-69
2021/12/09 03:38:01;;;;;;;1999.90;999.90;;;1.90;99.90;;;;;;5033167;28;20505;-69
2021/12/09 03:40:27;;;;;;;1999.90;999.90;;;1.90;99.90;;;;;;5033630;28;20474;-69
2021/12/09 03:42:54;;;;;;;1999.90;999.90;;;1.90;99.90;;;;;;5033233;28;20998;-69
2021/12/09 03:45:22;;;;;;;1999.90;999.90;;;1.80;99.90;;;;;;5033541;28;20508;-69
2021/12/09 03:47:49;;;;;;;1999.90;999.90;;;1.80;99.90;;;;;;5033438;28;20513;-69
2021/12/09 03:50:17;;;;;;;1999.90;999.90;;;1.80;99.90;;;;;;5033303;28;20889;-69
2021/12/09 03:52:44;;;;;;;1999.90;999.90;;;1.70;99.90;;;;;;5032884;28;20502;-69
2021/12/09 03:55:11;;;;;;;1999.90;999.90;;;1.70;99.90;;;;;;5033587;28;20504;-68
2021/12/09 03:57:38;;;;;;;1999.90;999.90;;;1.70;99.90;;;;;;5033617;28;20455;-69
2021/12/09 04:00:07;;;;;;;1999.90;999.90;;;1.70;99.90;;;;;;5033093;28;20463;-69
2021/12/09 04:02:35;;;;;;;1999.90;999.90;;;1.60;99.90;;;;;;5034044;28;20443;-69
2021/12/09 04:05:01;;;;;;;1999.90;999.90;;;1.60;99.90;;;;;;5033279;28;20442;-68
2021/12/09 04:07:28;;;;;;;1999.90;999.90;;;1.60;99.90;;;;;;5032903;28;20448;-69
2021/12/09 04:09:55;;;;;;;1999.90;999.90;;;1.60;99.90;;;;;;5032800;28;20475;-68
2021/12/09 04:12:22;;;;;;;1999.90;999.90;;;1.60;99.90;;;;;;5032979;28;20487;-69
2021/12/09 04:14:48;;;;;;;1999.90;999.90;;;1.60;99.90;;;;;;5033119;28;20451;-69
2021/12/09 04:17:15;;;;;;;1999.90;999.90;;;1.60;99.90;;;;;;5033103;28;20879;-69
2021/12/09 04:19:47;;;;;;;1999.90;999.90;;;1.50;99.90;;;;;;5032696;28;20504;-69
2021/12/09 04:22:15;;;;;;;1999.90;999.90;;;1.50;99.90;;;;;;5032206;28;20482;-69
2021/12/09 04:24:42;;;;;;;1999.90;999.90;;;1.60;99.90;;;;;;5032617;28;20455;-69
2021/12/09 04:27:08;;;;;;;1999.90;999.90;;;1.60;99.90;;;;;;5033144;28;20494;-69
2021/12/09 04:29:35;;;;;;;1999.90;999.90;;;2.10;99.90;;;;;;5032723;28;20451;-69
2021/12/09 04:32:02;;;;;;;1999.90;999.90;;;1.60;99.90;;;;;;5032464;28;20450;-69
2021/12/09 04:34:30;;;;;;;1999.90;999.90;;;1.60;99.90;;;;;;5032467;28;20447;-69
2021/12/09 04:36:58;;;;;;;1999.90;999.90;;;1.50;99.90;;;;;;5032308;28;20475;-69
2021/12/09 04:39:25;;;;;;;1999.90;999.90;;;1.60;99.90;;;;;;5032317;28;20451;-69
2021/12/09 04:41:51;;;;;;;1999.90;999.90;;;1.60;99.90;;;;;;5032387;28;20471;-68
2021/12/09 04:44:18;;;;;;;1999.90;999.90;;;1.60;99.90;;;;;;5032648;28;20496;-69
2021/12/09 04:46:45;;;;;;;1999.90;999.90;;;1.60;99.90;;;;;;5032368;28;20450;-69
2021/12/09 04:49:11;;;;;;;1999.90;999.90;;;1.50;99.90;;;;;;5032406;28;20451;-69
2021/12/09 04:51:38;;;;;;;1999.90;999.90;;;1.50;99.90;;;;;;5032244;28;20479;-69
2021/12/09 04:54:07;;;;;;;1999.90;999.90;;;1.50;99.90;;;;;;5032895;28;20483;-69
2021/12/09 04:56:35;;;;;;;1999.90;999.90;;;1.50;99.90;;;;;;5032019;28;20455;-69
2021/12/09 04:59:03;;;;;;;1999.90;999.90;;;1.50;99.90;;;;;;5032788;28;20439;-69
2021/12/09 05:01:29;;;;;;;1999.90;999.90;;;1.50;99.90;;;;;;5032222;28;20464;-69
2021/12/09 05:03:56;;;;;;;1999.90;999.90;;;1.50;99.90;;;;;;5032501;28;20508;-69
2021/12/09 05:06:23;;;;;;;1999.90;999.90;;;1.50;99.90;;;;;;5031555;28;20808;-69
2021/12/09 05:08:51;;;;;;;1999.90;999.90;;;1.60;99.90;;;;;;5032149;28;20451;-69
2021/12/09 05:11:32;;;;;;;1999.90;999.90;;;1.50;99.90;;;;;;5031788;28;20471;-69
2021/12/09 05:13:59;;;;;;;1999.90;999.90;;;1.50;99.90;;;;;;5032403;28;20470;-69
2021/12/09 05:16:26;;;;;;;1999.90;999.90;;;1.50;99.90;;;;;;5032296;28;20457;-69
2021/12/09 05:18:58;;;;;;;1999.90;999.90;;;1.50;99.90;;;;;;5031881;28;20524;-69
2021/12/09 05:21:28;;;;;;;1999.90;999.90;;;1.60;99.90;;;;;;5031318;28;20483;-69
2021/12/09 05:23:55;;;;;;;1999.90;999.90;;;1.60;99.90;;;;;;5031967;28;20827;-69
2021/12/09 05:26:30;;;;;;;1999.90;999.90;;;1.60;99.90;;;;;;5031581;28;20876;-69
2021/12/09 05:28:57;;;;;;;1999.90;999.90;;;1.60;99.90;;;;;;5031622;28;20541;-69
2021/12/09 05:34:08;;;;;;;1999.90;999.90;;;1.70;99.90;;;;;;5031826;28;20474;-69
2021/12/09 05:36:35;;;;;;;1999.90;999.90;;;1.60;99.90;;;;;;5031772;28;20451;-69
2021/12/09 05:39:05;;;;;;;1999.90;999.90;;;1.60;99.90;;;;;;5033209;28;20497;-69
2021/12/09 05:41:34;;;;;;;1999.90;999.90;;;1.60;99.90;;;;;;5031208;28;20894;-69
2021/12/09 05:44:01;;;;;;;1999.90;999.90;;;1.60;99.90;;;;;;5031921;28;20443;-69
2021/12/09 05:46:28;;;;;;;1999.90;999.90;;;1.60;99.90;;;;;;5031880;28;20470;-70
2021/12/09 05:48:55;;;;;;;1999.90;999.90;;;1.70;99.90;;;;;;5033938;28;20454;-69
2021/12/09 05:51:22;;;;;;;1999.90;999.90;;;1.60;99.90;;;;;;5035200;28;20471;-69
2021/12/09 05:53:49;;;;;;;1999.90;999.90;;;1.60;99.90;;;;;;5035630;28;20544;-69
2021/12/09 05:56:16;;;;;;;1999.90;999.90;;;1.60;99.90;;;;;;5035475;28;20989;-70
2021/12/09 05:58:45;;;;;;;1999.90;999.90;;;1.60;99.90;;;;;;5035477;28;20512;-69
2021/12/09 06:01:11;;;;;;;1999.90;999.90;;;1.60;99.90;;;;;;5035201;28;20511;-69
2021/12/09 06:03:38;;;;;;;1999.90;999.90;;;1.60;99.90;;;;;;5035600;28;20497;-69
2021/12/09 06:06:05;;;;;;;1999.90;999.90;;;1.60;99.90;;;;;;5035329;28;20513;-69
2021/12/09 06:08:32;;;;;;;1999.90;999.90;;;1.60;99.90;;;;;;5035893;28;20451;-69
2021/12/09 06:11:00;;;;;;;1999.90;999.90;;;1.70;99.90;;;;;;5036112;28;20471;-69
2021/12/09 06:13:30;;;;;;;1999.90;999.90;;;1.60;99.90;;;;;;5035632;28;20475;-69
2021/12/09 06:15:58;;;;;;;1999.90;999.90;;;1.70;99.90;;;;;;5042004;28;20504;-69
2021/12/09 06:18:26;;;;;;;1999.90;999.90;;;1.70;99.90;;;;;;5049726;28;20447;-69
2021/12/09 06:20:52;;;;;;;1999.90;999.90;;;1.70;99.90;;;;;;5046686;28;20475;-69
2021/12/09 06:23:19;;;;;;;1999.90;999.90;;;1.70;99.90;;;;;;5034706;28;20451;-69
2021/12/09 06:25:46;;;;;;;1999.90;999.90;;;1.70;99.90;;;;;;5035232;28;20446;-69
2021/12/09 06:28:13;;;;;;;1999.90;999.90;;;1.80;99.90;;;;;;5034603;28;20512;-70
2021/12/09 06:30:40;;;;;;;1999.90;999.90;;;1.70;99.90;;;;;;5034744;28;20471;-69
2021/12/09 06:33:08;;;;;;;1999.90;999.90;;;1.80;99.90;;;;;;5035061;28;20529;-68
2021/12/09 06:35:35;;;;;;;1999.90;999.90;;;1.90;99.90;;;;;;5034363;28;20446;-69
2021/12/09 06:38:01;;;;;;;1999.90;999.90;;;1.90;99.90;;;;;;5034456;28;20947;-71
2021/12/09 06:40:28;;;;;;;1999.90;999.90;;;1.90;99.90;;;;;;5034739;28;20462;-70
2021/12/09 06:42:55;;;;;;;1999.90;999.90;;;1.90;99.90;;;;;;5034549;28;20448;-70
2021/12/09 06:45:24;;;;;;;1999.90;999.90;;;1.80;99.90;;;;;;5034618;28;20447;-70
2021/12/09 06:47:53;;;;;;;1999.90;999.90;;;1.80;99.90;;;;;;5034492;28;20451;-69
2021/12/09 06:50:23;;;;;;;1999.90;999.90;;;1.90;99.90;;;;;;5029016;28;20486;-70
2021/12/09 06:52:50;;;;;;;1999.90;999.90;;;1.80;99.90;;;;;;5025746;28;20483;-70
2021/12/09 06:55:19;;;;;;;1999.90;999.90;;;2.10;99.90;;;;;;5031998;28;20463;-69
2021/12/09 06:57:46;;;;;;;1999.90;999.90;;;1.90;99.90;;;;;;5034427;28;20455;-69
2021/12/09 07:00:16;;;;;;;1999.90;999.90;;;1.90;99.90;;;;;;5032509;28;21065;-70
2021/12/09 07:02:44;;;;;;;1999.90;999.90;;;1.80;99.90;;;;;;5033897;28;20447;-69
2021/12/09 07:05:11;;;;;;;1999.90;999.90;;;1.80;99.90;;;;;;5034221;28;20503;-69
2021/12/09 07:07:39;;;;;;;1999.90;999.90;;;1.70;99.90;;;;;;5034088;28;20939;-70
2021/12/09 07:10:08;;;;;;;1999.90;999.90;;;1.70;99.90;;;;;;5014232;28;20835;-69
2021/12/09 07:12:36;;;;;;;1999.90;999.90;;;1.80;99.90;;;;;;5032520;28;20470;-70
2021/12/09 07:15:05;;;;;;;1999.90;999.90;;;1.80;99.90;;;;;;5030945;28;20459;-70
2021/12/09 07:17:32;;;;;;;1999.90;999.90;;;1.80;99.90;;;;;;5029355;28;20471;-69
2021/12/09 07:19:59;;;;;;;1999.90;999.90;;;1.90;99.90;;;;;;5027718;28;20483;-70
2021/12/09 07:22:26;;;;;;;1999.90;999.90;;;1.90;99.90;;;;;;5030803;28;20460;-69
2021/12/09 07:24:54;;;;;;;1999.90;999.90;;;1.90;99.90;;;;;;5032333;28;20463;-70
2021/12/09 07:27:21;;;;;;;1999.90;999.90;;;2.00;99.90;;;;;;5033198;28;20452;-70
2021/12/09 07:29:47;;;;;;;1999.90;999.90;;;2.00;99.90;;;;;;5030703;28;20549;-69
2021/12/09 07:32:14;;;;;;;1999.90;999.90;;;2.10;99.90;;;;;;5027451;28;20467;-69
2021/12/09 07:34:41;;;;;;;1999.90;999.90;;;2.10;99.90;;;;;;5032516;28;20487;-70
2021/12/09 07:37:08;;;;;;;1999.90;999.90;;;2.10;99.90;;;;;;5030590;28;20494;-69
2021/12/09 07:39:35;;;;;;;1999.90;999.90;;;2.00;99.90;;;;;;5025136;28;20509;-69
2021/12/09 07:42:04;;;;;;;1999.90;999.90;;;2.00;99.90;;;;;;5026442;28;20459;-69
2021/12/09 07:44:32;;;;;;;1999.90;999.90;;;2.00;99.90;;;;;;5032557;28;20455;-69
2021/12/09 07:47:00;;;;;;;1999.90;999.90;;;2.10;99.90;;;;;;5032338;28;20485;-69
2021/12/09 07:49:27;;;;;;;1999.90;999.90;;;2.10;99.90;;;;;;5031590;28;20505;-70
2021/12/09 07:51:55;;;;;;;1999.90;999.90;;;2.10;99.90;;;;;;5029841;28;20491;-69
2021/12/09 07:54:22;;;;;;;1999.90;999.90;;;2.10;99.90;;;;;;5032791;28;20526;-69
2021/12/09 07:56:49;;;;;;;1999.90;999.90;;;2.10;99.90;;;;;;5031255;28;20470;-69
2021/12/09 07:59:17;;;;;;;1999.90;999.90;;;2.10;99.90;;;;;;5031501;28;20844;-71
2021/12/09 08:01:45;;;;;;;1999.90;999.90;;;2.10;99.90;;;;;;5030247;28;20546;-69
2021/12/09 08:04:12;;;;;;;1999.90;999.90;;;2.10;99.90;;;;;;5029929;28;20517;-69
2021/12/09 08:06:38;;;;;;;1999.90;999.90;;;2.10;99.90;;;;;;5030849;28;20463;-69
2021/12/09 08:09:08;;;;;;;1999.90;999.90;;;2.00;99.90;;;;;;5030749;28;20525;-69
2021/12/09 08:11:36;;;;;;;1999.90;999.90;;;1.90;99.90;;;;;;5028414;28;20582;-70
2021/12/09 08:14:04;;;;;;;1999.90;999.90;;;1.90;99.90;;;;;;5031807;28;20566;-69
2021/12/09 08:16:36;;;;;;;1999.90;999.90;;;2.00;99.90;;;;;;5030963;28;20471;-69
2021/12/09 08:19:04;;;;;;;1999.90;999.90;;;2.00;99.90;;;;;;5028726;28;20498;-69
2021/12/09 08:21:33;;;;;;;1999.90;999.90;;;2.10;99.90;;;;;;5028785;28;20937;-69
2021/12/09 08:24:00;;;;;;;1999.90;999.90;;;2.10;99.90;;;;;;5031121;28;20470;-69
2021/12/09 08:26:27;;;;;;;1999.90;999.90;;;2.10;99.90;;;;;;5031095;28;20467;-69
2021/12/09 08:28:54;;;;;;;1999.90;999.90;;;2.20;99.90;;;;;;5025013;28;20471;-69
2021/12/09 08:31:21;;;;;;;1999.90;999.90;;;2.20;99.90;;;;;;5023055;28;20545;-68
2021/12/09 08:33:49;;;;;;;1999.90;999.90;;;2.20;99.90;;;;;;5023651;28;20516;-69
2021/12/09 08:36:16;;;;;;;1999.90;999.90;;;2.20;99.90;;;;;;5027840;28;21148;-69
2021/12/09 08:38:43;;;;;;;1999.90;999.90;;;2.20;99.90;;;;;;5031612;28;20880;-69
2021/12/09 08:41:10;;;;;;;1999.90;999.90;;;2.20;99.90;;;;;;5031344;28;20986;-69
2021/12/09 08:43:37;;;;;;;1999.90;999.90;;;2.20;99.90;;;;;;5031420;28;20459;-69
2021/12/09 08:46:04;;;;;;;1999.90;999.90;;;2.10;99.90;;;;;;5030456;28;20459;-69
2021/12/09 08:48:31;;;;;;;1999.90;999.90;;;2.10;99.90;;;;;;5031702;28;20482;-70
2021/12/09 08:51:00;;;;;;;1999.90;999.90;;;2.10;99.90;;;;;;5028634;28;20489;-70
2021/12/09 08:53:27;;;;;;;1999.90;999.90;;;2.10;99.90;;;;;;5031191;28;20532;-69
2021/12/09 08:55:54;;;;;;;1999.90;999.90;;;2.10;99.90;;;;;;5029976;28;20455;-70
2021/12/09 08:58:21;;;;;;;1999.90;999.90;;;2.10;99.90;;;;;;5025621;28;20883;-69
2021/12/09 09:00:51;;;;;;;1999.90;999.90;;;2.10;99.90;;;;;;5021199;28;20556;-69
2021/12/09 09:03:17;;;;;;;1999.90;999.90;;;2.10;99.90;;;;;;5023459;28;20951;-70
2021/12/09 09:05:44;;;;;;;1999.90;999.90;;;2.20;99.90;;;;;;5025484;28;20525;-70
2021/12/09 09:08:12;;;;;;;1999.90;999.90;;;2.10;99.90;;;;;;5030683;28;20884;-67
2021/12/09 09:10:42;;;;;;;1999.90;999.90;;;2.10;99.90;;;;;;5030733;28;20893;-69
2021/12/09 09:13:09;;;;;;;1999.90;999.90;;;2.20;99.90;;;;;;5031223;28;20451;-69
2021/12/09 09:15:36;;;;;;;1999.90;999.90;;;2.30;99.90;;;;;;5031829;28;20490;-69
2021/12/09 09:18:04;;;;;;;1999.90;999.90;;;2.30;99.90;;;;;;5030442;28;20537;-70
2021/12/09 09:20:34;;;;;;;1999.90;999.90;;;2.30;99.90;;;;;;5030902;28;20482;-69
2021/12/09 09:23:01;;;;;;;1999.90;999.90;;;2.20;99.90;;;;;;5031120;28;20439;-70
2021/12/09 09:25:30;;;;;;;1999.90;999.90;;;2.30;99.90;;;;;;5031565;28;20444;-69
2021/12/09 09:27:58;;;;;;;1999.90;999.90;;;2.40;99.90;;;;;;5030810;28;20447;-70
2021/12/09 09:30:27;;;;;;;1999.90;999.90;;;2.40;99.90;;;;;;5031485;28;20517;-70
2021/12/09 09:32:54;;;;;;;1999.90;999.90;;;2.30;99.90;;;;;;5031387;28;20932;-69
2021/12/09 09:35:21;;;;;;;1999.90;999.90;;;2.20;99.90;;;;;;5032730;28;20479;-70
2021/12/09 09:37:48;;;;;;;1999.90;999.90;;;2.30;99.90;;;;;;5032297;28;20451;-69
2021/12/09 09:40:27;;;;;;;1999.90;999.90;;;2.40;99.90;;;;;;5033304;28;20471;-69
2021/12/09 09:43:01;;;;;;;1999.90;999.90;;;2.50;99.90;;;;;;5031704;28;20455;-69
2021/12/09 09:45:28;;;;;;;1999.90;999.90;;;2.50;99.90;;;;;;5031440;28;20443;-69
2021/12/09 09:47:55;;;;;;;1999.90;999.90;;;2.40;99.90;;;;;;5031551;28;20458;-69
2021/12/09 09:50:23;;;;;;;1999.90;999.90;;;2.40;99.90;;;;;;5026351;28;20463;-68
2021/12/09 09:52:50;;;;;;;1999.90;999.90;;;2.60;99.90;;;;;;5031196;28;20582;-69
2021/12/09 09:55:21;;;;;;;1999.90;999.90;;;2.70;99.90;;;;;;5031209;28;20483;-67
2021/12/09 09:57:51;;;;;;;1999.90;999.90;;;2.70;99.90;;;;;;5031296;28;20447;-68
2021/12/09 10:00:21;;;;;;;1999.90;999.90;;;2.70;99.90;;;;;;5028299;28;20467;-68
2021/12/09 10:02:53;;;;;;;1999.90;999.90;;;2.70;99.90;;;;;;5030838;28;20821;-68
2021/12/09 10:05:25;;;;;;;1999.90;999.90;;;2.60;99.90;;;;;;5031733;28;20481;-69
2021/12/09 10:07:52;;;;;;;1999.90;999.90;;;2.80;99.90;;;;;;5031121;28;20443;-69
2021/12/09 10:10:19;;;;;;;1999.90;999.90;;;2.80;99.90;;;;;;5030510;28;20533;-69
2021/12/09 10:13:01;;;;;;;1999.90;999.90;;;2.90;99.90;;;;;;5031133;28;20448;-69
2021/12/09 10:15:41;;;;;;;1999.90;999.90;;;3.00;99.90;;;;;;5024875;28;20853;-69
2021/12/09 10:18:09;;;;;;;1999.90;999.90;;;3.10;99.90;;;;;;5030777;28;20455;-69
2021/12/09 10:20:49;;;;;;;1999.90;999.90;;;3.10;99.90;;;;;;5027700;28;20904;-69
2021/12/09 10:23:28;;;;;;;1999.90;999.90;;;3.10;99.90;;;;;;5021018;28;20447;-69
2021/12/09 10:26:21;;;;;;;1999.90;999.90;;;3.20;99.90;;;;;;5030865;28;20960;-69
2021/12/09 10:28:53;;;;;;;1999.90;999.90;;;3.30;99.90;;;;;;5013149;28;20463;-69
2021/12/09 10:31:25;;;;;;;1999.90;999.90;;;3.10;99.90;;;;;;5030886;28;20467;-69
2021/12/09 10:34:11;;;;;;;1999.90;999.90;;;3.10;99.90;;;;;;5031188;28;20439;-68
2021/12/09 10:36:44;;;;;;;1999.90;999.90;;;2.90;99.90;;;;;;5034626;28;20530;-69
2021/12/09 10:39:20;;;;;;;1999.90;999.90;;;2.90;99.90;;;;;;5034577;28;20466;-69
2021/12/09 10:41:47;;;;;;;1999.90;999.90;;;3.10;99.90;;;;;;5034312;28;20478;-69
2021/12/09 10:44:14;;;;;;;1999.90;999.90;;;3.20;99.90;;;;;;5034602;28;20501;-69
2021/12/09 10:46:54;;;;;;;1999.90;999.90;;;3.20;99.90;;;;;;5034552;28;20451;-67
2021/12/09 10:49:21;;;;;;;1999.90;999.90;;;3.30;99.90;;;;;;5034453;28;20459;-69
2021/12/09 10:52:00;;;;;;;1999.90;999.90;;;3.30;99.90;;;;;;5033710;28;21021;-69
2021/12/09 10:54:32;;;;;;;1999.90;999.90;;;3.40;99.90;;;;;;5034076;28;20861;-69
2021/12/09 10:57:27;;;;;;;1999.90;999.90;;;3.40;99.90;;;;;;5034748;28;20458;-69
2021/12/09 10:59:55;;;;;;;1999.90;999.90;;;3.40;99.90;;;;;;5035800;28;20475;-68
2021/12/09 11:02:22;;;;;;;1999.90;999.90;;;3.50;99.90;;;;;;5036029;28;20444;-68
2021/12/09 11:05:04;;;;;;;1999.90;999.90;;;3.40;99.90;;;;;;5033716;28;21085;-69
2021/12/09 11:07:32;;;;;;;1999.90;999.90;;;3.30;99.90;;;;;;5034010;28;20517;-69
2021/12/09 11:10:16;;;;;;;1999.90;999.90;;;3.30;99.90;;;;;;5034212;28;20529;-69
2021/12/09 11:12:51;;;;;;;1999.90;999.90;;;3.40;99.90;;;;;;5030775;28;20483;-69
2021/12/09 11:15:19;;;;;;;1999.90;999.90;;;3.40;99.90;;;;;;5033369;28;20529;-69
2021/12/09 11:17:49;;;;;;;1999.90;999.90;;;3.40;99.90;;;;;;5033560;28;20454;-69
2021/12/09 11:20:44;;;;;;;1999.90;999.90;;;3.50;99.90;;;;;;5032918;28;20842;-69
2021/12/09 11:23:36;;;;;;;1999.90;999.90;;;3.40;99.90;;;;;;5031213;28;21313;-69
2021/12/09 11:26:29;;;;;;;1999.90;999.90;;;3.50;99.90;;;;;;5032767;28;20451;-69
2021/12/09 11:28:57;;;;;;;1999.90;999.90;;;3.40;99.90;;;;;;5030912;28;20459;-69
2021/12/09 11:31:28;;;;;;;1999.90;999.90;;;3.30;99.90;;;;;;5031705;28;20478;-69
2021/12/09 11:34:04;;;;;;;1999.90;999.90;;;3.30;99.90;;;;;;5033774;28;20455;-69
2021/12/09 11:36:44;;;;;;;1999.90;999.90;;;3.40;99.90;;;;;;5019647;28;20498;-69
2021/12/09 11:39:16;;;;;;;1999.90;999.90;;;3.50;99.90;;;;;;5015642;28;20467;-69
2021/12/09 11:41:44;;;;;;;1999.90;999.90;;;3.50;99.90;;;;;;5036600;28;20485;-68
2021/12/09 11:44:11;;;;;;;1999.90;999.90;;;3.40;99.90;;;;;;5044386;28;20497;-69
2021/12/09 11:46:40;;;;;;;1999.90;999.90;;;3.50;99.90;;;;;;5042462;28;20466;-70
2021/12/09 11:49:07;;;;;;;1999.90;999.90;;;3.50;99.90;;;;;;5043584;28;20591;-69
2021/12/09 11:51:35;;;;;;;1999.90;999.90;;;3.50;99.90;;;;;;5041509;28;20472;-68
2021/12/09 11:54:05;;;;;;;1999.90;999.90;;;3.60;99.90;;;;;;5039123;28;20483;-69
2021/12/09 11:56:40;;;;;;;1999.90;999.90;;;3.70;99.90;;;;;;5033572;28;20444;-69
2021/12/09 12:11:07;;;;;;;1999.90;999.90;;;3.50;99.90;;;;;;5023282;28;20434;-68
2021/12/09 12:11:12;;;;;;;1999.90;999.90;;;3.40;99.90;;;;;;5032500;28;20835;-69
2021/12/09 12:13:47;;;;;;;1999.90;999.90;;;3.40;99.90;;;;;;5032961;28;20446;-69
2021/12/09 12:16:40;;;;;;;1999.90;999.90;;;3.40;99.90;;;;;;5020105;28;20471;-69
2021/12/09 12:19:13;;;;;;;1999.90;999.90;;;3.40;99.90;;;;;;5025394;28;20490;-69
2021/12/09 12:24:58;;;;;;;1999.90;999.90;;;3.40;99.90;;;;;;5032324;28;20458;-69
2021/12/09 12:27:46;;;;;;;1999.90;999.90;;;3.40;99.90;;;;;;5032726;28;20525;-69
2021/12/09 12:33:17;;;;;;;1999.90;999.90;;;3.50;99.90;;;;;;5024808;28;20454;-68
2021/12/09 12:36:19;;;;;;;1999.90;999.90;;;3.30;99.90;;;;;;5032442;28;20478;-69